createdAt,value
2022-08-20T00:01:48.131Z,19.54
2022-08-20T00:04:35.587Z,19.57
2022-08-20T00:07:22.407Z,19.66
2022-08-20T00:10:09.637Z,19.60
2022-08-20T00:12:57.099Z,19.61
2022-08-20T00:15:43.826Z,19.58
2022-08-20T00:18:31.208Z,19.50
2022-08-20T00:21:19.772Z,19.34
2022-08-20T00:24:06.834Z,19.41
2022-08-20T00:26:53.222Z,19.22
2022-08-20T00:29:39.500Z,19.13
2022-08-20T00:32:25.763Z,19.11
2022-08-20T00:35:12.968Z,19.10
2022-08-20T00:38:00.796Z,18.87
2022-08-20T00:40:51.967Z,19.11
2022-08-20T00:43:43.491Z,18.89
2022-08-20T00:46:31.937Z,18.91
2022-08-20T00:49:25.828Z,18.83
2022-08-20T00:52:17.554Z,18.56
2022-08-20T00:55:06.060Z,18.71
2022-08-20T00:58:01.134Z,18.58
2022-08-20T01:00:49.689Z,18.47
2022-08-20T01:03:36.332Z,18.42
2022-08-20T01:06:25.166Z,18.30
2022-08-20T01:09:11.881Z,18.53
2022-08-20T01:11:58.883Z,18.35
2022-08-20T01:14:46.789Z,18.33
2022-08-20T01:17:36.834Z,18.47
2022-08-20T01:20:29.006Z,18.53
2022-08-20T01:23:40.517Z,18.65
2022-08-20T01:26:32.368Z,18.67
2022-08-20T01:29:23.674Z,18.66
2022-08-20T01:32:10.783Z,18.51
2022-08-20T01:34:57.410Z,18.54
2022-08-20T01:37:44.961Z,18.62
2022-08-20T01:41:06.599Z,18.76
2022-08-20T01:43:58.313Z,18.73
2022-08-20T01:46:48.007Z,18.63
2022-08-20T01:49:35.521Z,18.83
2022-08-20T01:53:00.851Z,18.68
2022-08-20T01:55:47.760Z,18.62
2022-08-20T01:58:37.843Z,18.64
2022-08-20T02:01:50.598Z,18.71
2022-08-20T02:04:36.887Z,18.50
2022-08-20T02:07:23.650Z,18.47
2022-08-20T02:10:12.258Z,18.65
2022-08-20T02:13:00.707Z,18.62
2022-08-20T02:15:47.010Z,18.38
2022-08-20T02:18:33.927Z,18.49
2022-08-20T02:21:23.421Z,18.45
2022-08-20T02:24:10.443Z,18.42
2022-08-20T02:26:57.010Z,18.42
2022-08-20T02:29:43.258Z,18.34
2022-08-20T02:32:34.321Z,18.32
2022-08-20T02:35:20.855Z,18.27
2022-08-20T02:38:07.283Z,18.31
2022-08-20T02:40:53.503Z,18.39
2022-08-20T02:43:40.051Z,18.44
2022-08-20T02:46:28.492Z,18.40
2022-08-20T02:49:17.674Z,18.74
2022-08-20T02:52:04.792Z,18.59
2022-08-20T02:54:52.162Z,18.76
2022-08-20T02:57:38.703Z,18.68
2022-08-20T03:00:25.355Z,18.70
2022-08-20T03:03:12.882Z,18.91
2022-08-20T03:06:00.137Z,18.94
2022-08-20T03:08:46.382Z,18.98
2022-08-20T03:11:33.183Z,18.74
2022-08-20T03:14:20.532Z,19.06
2022-08-20T03:17:06.783Z,18.92
2022-08-20T03:19:53.157Z,19.00
2022-08-20T03:22:40.077Z,18.92
2022-08-20T03:25:26.876Z,19.02
2022-08-20T03:28:13.986Z,18.98
2022-08-20T03:31:01.601Z,18.97
2022-08-20T03:33:52.970Z,19.10
2022-08-20T03:36:40.321Z,18.99
2022-08-20T03:39:26.570Z,18.99
2022-08-20T03:42:13.141Z,19.11
2022-08-20T03:45:00.737Z,19.22
2022-08-20T03:47:48.680Z,19.17
2022-08-20T03:50:35.615Z,19.19
2022-08-20T03:53:22.813Z,19.24
2022-08-20T03:56:09.333Z,19.26
2022-08-20T03:58:55.933Z,19.30
2022-08-20T04:01:46.016Z,19.29
2022-08-20T04:04:32.953Z,19.22
2022-08-20T04:07:25.535Z,19.39
2022-08-20T04:10:12.696Z,19.36
2022-08-20T04:12:59.402Z,19.23
2022-08-20T04:15:45.987Z,19.30
2022-08-20T04:18:34.037Z,19.28
2022-08-20T04:21:20.190Z,19.41
2022-08-20T04:24:06.585Z,19.33
2022-08-20T04:26:54.885Z,19.28
2022-08-20T04:29:44.641Z,19.29
2022-08-20T04:32:30.907Z,19.10
2022-08-20T04:35:18.114Z,19.08
2022-08-20T04:38:07.774Z,19.36
2022-08-20T04:40:57.789Z,19.42
2022-08-20T04:43:44.326Z,19.39
2022-08-20T04:46:32.591Z,19.37
2022-08-20T04:49:26.220Z,19.18
2022-08-20T04:52:12.552Z,19.27
2022-08-20T04:54:59.119Z,19.13
2022-08-20T04:57:45.861Z,19.30
2022-08-20T05:00:33.551Z,19.47
2022-08-20T05:03:20.290Z,19.30
2022-08-20T05:06:08.939Z,19.27
2022-08-20T05:08:57.911Z,19.52
2022-08-20T05:11:44.477Z,19.44
2022-08-20T05:14:31.339Z,19.35
2022-08-20T05:17:17.829Z,19.38
2022-08-20T05:20:05.474Z,19.59
2022-08-20T05:22:52.249Z,19.59
2022-08-20T05:25:40.682Z,19.73
2022-08-20T05:28:32.830Z,19.59
2022-08-20T05:31:23.517Z,19.49
2022-08-20T05:34:19.105Z,19.55
2022-08-20T05:37:06.057Z,19.57
2022-08-20T05:39:54.379Z,19.65
2022-08-20T05:42:41.302Z,19.84
2022-08-20T05:45:27.806Z,19.69
2022-08-20T05:48:18.399Z,20.11
2022-08-20T05:51:04.489Z,19.90
2022-08-20T05:53:50.778Z,20.14
2022-08-20T05:56:37.657Z,19.95
2022-08-20T05:59:25.650Z,20.23
2022-08-20T06:02:30.446Z,20.24
2022-08-20T06:05:16.975Z,20.24
2022-08-20T06:08:08.256Z,20.35
2022-08-20T06:10:54.666Z,20.20
2022-08-20T06:13:40.816Z,20.05
2022-08-20T06:16:29.035Z,19.85
2022-08-20T06:19:16.386Z,19.92
2022-08-20T06:22:17.858Z,20.00
2022-08-20T06:25:10.018Z,19.99
2022-08-20T06:27:57.778Z,20.13
2022-08-20T06:30:44.490Z,19.97
2022-08-20T06:33:31.043Z,20.11
2022-08-20T06:36:18.788Z,20.04
2022-08-20T06:39:05.554Z,20.30
2022-08-20T06:41:51.798Z,20.49
2022-08-20T06:44:39.604Z,20.74
2022-08-20T06:47:26.237Z,20.76
2022-08-20T06:50:19.242Z,20.99
2022-08-20T06:53:07.420Z,21.27
2022-08-20T06:55:56.219Z,21.18
2022-08-20T06:58:43.859Z,21.24
2022-08-20T07:01:30.489Z,21.46
2022-08-20T07:04:17.145Z,21.77
2022-08-20T07:07:04.250Z,21.92
2022-08-20T07:09:51.254Z,22.11
2022-08-20T07:12:37.829Z,22.07
2022-08-20T07:15:25.849Z,22.32
2022-08-20T07:18:14.279Z,22.62
2022-08-20T07:21:01.057Z,22.75
2022-08-20T07:23:49.478Z,22.55
2022-08-20T07:26:35.941Z,22.55
2022-08-20T07:29:22.451Z,22.91
2022-08-20T07:32:28.884Z,22.93
2022-08-20T07:35:18.612Z,22.73
2022-08-20T07:38:05.108Z,23.01
2022-08-20T07:40:54.914Z,23.11
2022-08-20T07:43:43.218Z,22.96
2022-08-20T07:46:31.711Z,22.74
2022-08-20T07:49:18.366Z,22.93
2022-08-20T07:52:06.211Z,22.91
2022-08-20T07:54:53.675Z,23.06
2022-08-20T07:57:41.129Z,23.08
2022-08-20T08:00:27.596Z,22.96
2022-08-20T08:03:14.191Z,22.82
2022-08-20T08:06:00.814Z,22.86
2022-08-20T08:08:48.232Z,22.83
2022-08-20T08:11:38.361Z,23.00
2022-08-20T08:14:29.134Z,22.84
2022-08-20T08:17:17.892Z,22.82
2022-08-20T08:20:06.330Z,22.93
2022-08-20T08:22:53.784Z,22.97
2022-08-20T08:25:45.951Z,23.17
2022-08-20T08:28:32.413Z,23.25
2022-08-20T08:31:18.808Z,23.21
2022-08-20T08:34:05.185Z,23.08
2022-08-20T08:36:52.658Z,23.30
2022-08-20T08:39:39.009Z,23.38
2022-08-20T08:42:53.643Z,23.62
2022-08-20T08:45:45.706Z,23.71
2022-08-20T08:48:37.301Z,23.85
2022-08-20T08:51:42.037Z,24.10
2022-08-20T08:54:31.166Z,24.28
2022-08-20T08:57:18.822Z,24.30
2022-08-20T09:00:14.045Z,24.19
2022-08-20T09:03:12.203Z,24.06
2022-08-20T09:06:01.300Z,24.08
2022-08-20T09:08:57.941Z,23.76
2022-08-20T09:11:47.882Z,23.66
2022-08-20T09:14:34.600Z,23.50
2022-08-20T09:17:23.034Z,23.49
2022-08-20T09:20:10.604Z,23.32
2022-08-20T09:22:57.414Z,23.37
2022-08-20T09:25:43.852Z,23.36
2022-08-20T09:28:32.221Z,23.50
2022-08-20T09:31:21.871Z,23.75
2022-08-20T09:34:09.576Z,23.89
2022-08-20T09:36:56.166Z,23.64
2022-08-20T09:39:43.362Z,23.91
2022-08-20T09:42:36.199Z,24.15
2022-08-20T09:45:25.462Z,23.86
2022-08-20T09:48:11.662Z,24.08
2022-08-20T09:50:58.254Z,24.33
2022-08-20T09:53:46.124Z,24.17
2022-08-20T09:56:34.850Z,23.99
2022-08-20T09:59:21.258Z,23.94
2022-08-20T10:02:07.605Z,23.89
2022-08-20T10:04:54.450Z,24.14
2022-08-20T10:07:44.101Z,24.29
2022-08-20T10:10:30.789Z,24.36
2022-08-20T10:13:17.112Z,24.41
2022-08-20T10:16:04.736Z,24.51
2022-08-20T10:18:51.047Z,24.32
2022-08-20T10:21:39.040Z,24.33
2022-08-20T10:24:26.427Z,24.34
2022-08-20T10:27:12.845Z,24.21
2022-08-20T10:29:59.269Z,23.95
2022-08-20T10:32:45.523Z,23.81
2022-08-20T10:35:31.883Z,23.89
2022-08-20T10:38:18.085Z,24.09
2022-08-20T10:41:04.963Z,24.25
2022-08-20T10:43:51.633Z,24.48
2022-08-20T10:46:37.733Z,24.58
2022-08-20T10:49:24.189Z,24.20
2022-08-20T10:52:10.480Z,24.34
2022-08-20T10:54:56.647Z,24.19
2022-08-20T10:57:43.562Z,24.11
2022-08-20T11:00:30.384Z,24.12
2022-08-20T11:03:16.829Z,24.51
2022-08-20T11:06:04.011Z,24.31
2022-08-20T11:08:50.594Z,24.30
2022-08-20T11:11:39.182Z,24.33
2022-08-20T11:14:25.466Z,24.59
2022-08-20T11:17:12.249Z,25.20
2022-08-20T11:20:00.882Z,25.51
2022-08-20T11:22:47.367Z,25.55
2022-08-20T11:25:33.962Z,25.82
2022-08-20T11:28:31.131Z,25.98
2022-08-20T11:31:18.381Z,26.33
2022-08-20T11:34:06.533Z,26.45
2022-08-20T11:36:57.174Z,26.77
2022-08-20T11:39:44.145Z,26.52
2022-08-20T11:42:30.737Z,26.89
2022-08-20T11:45:17.631Z,26.70
2022-08-20T11:48:04.409Z,26.78
2022-08-20T11:50:50.620Z,26.85
2022-08-20T11:53:37.048Z,26.95
2022-08-20T11:56:25.102Z,26.68
2022-08-20T11:59:14.205Z,26.46
2022-08-20T12:02:03.213Z,26.02
2022-08-20T12:04:50.329Z,25.72
2022-08-20T12:07:36.637Z,25.49
2022-08-20T12:10:24.459Z,24.98
2022-08-20T12:13:11.119Z,24.87
2022-08-20T12:15:57.704Z,24.63
2022-08-20T12:18:44.170Z,24.36
2022-08-20T12:21:32.450Z,24.33
2022-08-20T12:24:18.953Z,24.18
2022-08-20T12:27:20.363Z,24.21
2022-08-20T12:30:10.928Z,24.15
2022-08-20T12:32:58.108Z,23.84
2022-08-20T12:35:44.762Z,24.03
2022-08-20T12:38:31.430Z,23.75
2022-08-20T12:41:17.759Z,23.74
2022-08-20T12:44:07.014Z,23.67
2022-08-20T12:47:14.242Z,23.95
2022-08-20T12:50:08.003Z,23.99
2022-08-20T12:52:55.122Z,23.93
2022-08-20T12:55:41.543Z,24.21
2022-08-20T12:58:27.971Z,24.59
2022-08-20T13:01:15.659Z,24.81
2022-08-20T13:04:02.047Z,25.25
2022-08-20T13:06:48.383Z,25.74
2022-08-20T13:09:34.529Z,26.17
2022-08-20T13:12:21.206Z,26.45
2022-08-20T13:15:08.306Z,26.70
2022-08-20T13:17:58.335Z,27.04
2022-08-20T13:20:44.802Z,27.25
2022-08-20T13:23:31.170Z,27.64
2022-08-20T13:26:17.934Z,28.05
2022-08-20T13:29:04.419Z,27.93
2022-08-20T13:31:50.826Z,28.31
2022-08-20T13:34:37.596Z,27.82
2022-08-20T13:37:27.910Z,28.17
2022-08-20T13:40:14.349Z,27.83
2022-08-20T13:43:05.964Z,27.83
2022-08-20T13:45:53.326Z,27.87
2022-08-20T13:48:39.539Z,27.79
2022-08-20T13:51:27.245Z,28.05
2022-08-20T13:54:17.122Z,28.16
2022-08-20T13:57:09.833Z,28.52
2022-08-20T13:59:58.070Z,28.37
2022-08-20T14:02:44.869Z,27.92
2022-08-20T14:05:32.367Z,27.61
2022-08-20T14:08:21.854Z,27.39
2022-08-20T14:11:08.382Z,27.29
2022-08-20T14:14:00.683Z,27.49
2022-08-20T14:16:48.144Z,27.85
2022-08-20T14:19:37.613Z,28.11
2022-08-20T14:22:24.819Z,28.14
2022-08-20T14:25:14.047Z,28.00
2022-08-20T14:28:10.787Z,27.73
2022-08-20T14:30:57.021Z,27.44
2022-08-20T14:33:44.794Z,27.62
2022-08-20T14:36:31.302Z,27.82
2022-08-20T14:39:20.425Z,27.88
2022-08-20T14:42:07.095Z,28.11
2022-08-20T14:44:54.591Z,27.51
2022-08-20T14:47:53.577Z,27.72
2022-08-20T14:50:41.049Z,27.76
2022-08-20T14:53:27.622Z,27.58
2022-08-20T14:56:15.519Z,27.78
2022-08-20T14:59:02.110Z,27.45
2022-08-20T15:01:48.353Z,27.50
2022-08-20T15:04:35.608Z,27.53
2022-08-20T15:07:35.235Z,27.50
2022-08-20T15:10:28.469Z,27.30
2022-08-20T15:13:14.919Z,27.04
2022-08-20T15:16:01.221Z,27.00
2022-08-20T15:18:47.492Z,26.70
2022-08-20T15:21:34.053Z,26.68
2022-08-20T15:24:31.846Z,26.70
2022-08-20T15:27:23.363Z,26.87
2022-08-20T15:30:13.865Z,26.83
2022-08-20T15:33:00.519Z,26.45
2022-08-20T15:35:47.371Z,26.43
2022-08-20T15:38:34.031Z,26.55
2022-08-20T15:41:20.215Z,26.57
2022-08-20T15:44:07.160Z,26.50
2022-08-20T15:46:53.551Z,26.31
2022-08-20T15:49:40.066Z,26.33
2022-08-20T15:52:32.254Z,26.31
2022-08-20T15:55:18.536Z,26.37
2022-08-20T15:58:23.568Z,26.43
2022-08-20T16:01:45.556Z,26.53
2022-08-20T16:04:47.079Z,26.47
2022-08-20T16:08:05.621Z,26.30
2022-08-20T16:11:26.357Z,26.30
2022-08-20T16:14:17.114Z,26.29
2022-08-20T16:17:11.211Z,25.95
2022-08-20T16:20:22.259Z,26.14
2022-08-20T16:23:12.735Z,26.05
2022-08-20T16:26:10.401Z,25.83
2022-08-20T16:29:22.588Z,25.50
2022-08-20T16:32:31.426Z,25.49
2022-08-20T16:35:35.119Z,25.45
2022-08-20T16:38:48.418Z,25.51
2022-08-20T16:41:39.897Z,25.48
2022-08-20T16:44:35.607Z,25.32
2022-08-20T16:47:31.278Z,25.29
2022-08-20T16:50:45.642Z,25.40
2022-08-20T16:53:32.374Z,25.15
2022-08-20T16:56:35.543Z,25.28
2022-08-20T16:59:24.684Z,24.97
2022-08-20T17:02:19.051Z,25.14
2022-08-20T17:05:06.758Z,24.76
2022-08-20T17:07:59.080Z,24.97
2022-08-20T17:11:12.217Z,24.97
2022-08-20T17:14:11.248Z,24.86
2022-08-20T17:16:57.688Z,24.59
2022-08-20T17:19:51.711Z,24.77
2022-08-20T17:22:45.481Z,24.82
2022-08-20T17:25:37.500Z,24.66
2022-08-20T17:28:24.220Z,24.62
2022-08-20T17:31:10.569Z,24.62
2022-08-20T17:33:57.071Z,24.51
2022-08-20T17:36:54.242Z,24.59
2022-08-20T17:40:07.141Z,24.48
2022-08-20T17:42:58.576Z,24.37
2022-08-20T17:45:46.485Z,24.24
2022-08-20T17:48:44.442Z,24.19
2022-08-20T17:51:37.087Z,24.07
2022-08-20T17:54:28.152Z,24.00
2022-08-20T17:57:17.939Z,23.74
2022-08-20T18:00:09.173Z,23.74
2022-08-20T18:03:05.109Z,23.63
2022-08-20T18:06:06.726Z,23.27
2022-08-20T18:09:04.260Z,23.37
2022-08-20T18:12:21.681Z,23.30
2022-08-20T18:15:27.217Z,23.22
2022-08-20T18:18:36.043Z,23.11
2022-08-20T18:21:54.853Z,23.02
2022-08-20T18:25:09.622Z,22.88
2022-08-20T18:28:03.491Z,22.67
2022-08-20T18:30:54.073Z,22.63
2022-08-20T18:33:43.631Z,22.40
2022-08-20T18:36:30.509Z,22.19
2022-08-20T18:39:29.735Z,22.15
2022-08-20T18:42:31.287Z,22.15
2022-08-20T18:45:35.566Z,21.99
2022-08-20T18:48:24.825Z,21.91
2022-08-20T18:51:12.644Z,21.49
2022-08-20T18:53:59.959Z,21.82
2022-08-20T18:56:46.238Z,21.54
2022-08-20T18:59:40.231Z,21.62
2022-08-20T19:02:32.502Z,21.48
2022-08-20T19:05:43.265Z,21.27
2022-08-20T19:08:43.041Z,21.17
2022-08-20T19:12:00.344Z,21.03
2022-08-20T19:14:58.189Z,20.69
2022-08-20T19:17:56.763Z,20.84
2022-08-20T19:20:54.370Z,20.71
2022-08-20T19:23:46.793Z,20.69
2022-08-20T19:26:42.598Z,20.38
2022-08-20T19:29:32.605Z,20.21
2022-08-20T19:32:25.634Z,20.25
2022-08-20T19:35:18.515Z,20.19
2022-08-20T19:38:07.546Z,19.99
2022-08-20T19:40:55.975Z,19.89
2022-08-20T19:43:59.953Z,19.82
2022-08-20T19:46:47.271Z,19.53
2022-08-20T19:49:48.097Z,19.51
2022-08-20T19:53:03.328Z,19.49
2022-08-20T19:55:59.099Z,19.47
2022-08-20T19:58:57.054Z,19.39
2022-08-20T20:02:00.115Z,19.50
2022-08-20T20:04:55.463Z,19.58
2022-08-20T20:07:46.516Z,19.59
2022-08-20T20:10:35.683Z,19.52
2022-08-20T20:13:23.798Z,19.19
2022-08-20T20:16:10.661Z,19.14
2022-08-20T20:19:22.638Z,18.99
2022-08-20T20:22:23.684Z,18.86
2022-08-20T20:25:12.843Z,18.68
2022-08-20T20:28:19.638Z,18.48
2022-08-20T20:31:09.078Z,18.19
2022-08-20T20:33:59.821Z,18.21
2022-08-20T20:36:48.140Z,18.00
2022-08-20T20:39:44.168Z,18.05
2022-08-20T20:42:30.792Z,17.73
2022-08-20T20:45:20.350Z,17.55
2022-08-20T20:48:23.449Z,17.74
2022-08-20T20:51:29.466Z,17.67
2022-08-20T20:54:29.321Z,17.64
2022-08-20T20:57:15.497Z,17.55
2022-08-20T21:00:02.248Z,17.36
2022-08-20T21:02:48.693Z,17.33
2022-08-20T21:05:35.099Z,17.38
2022-08-20T21:08:21.518Z,17.35
2022-08-20T21:11:08.156Z,17.10
2022-08-20T21:13:54.835Z,17.03
2022-08-20T21:16:42.340Z,16.85
2022-08-20T21:19:30.181Z,17.11
2022-08-20T21:22:18.040Z,16.87
2022-08-20T21:25:05.274Z,16.93
2022-08-20T21:27:53.296Z,16.64
2022-08-20T21:30:39.558Z,16.64
2022-08-20T21:33:26.107Z,16.60
2022-08-20T21:36:12.346Z,16.66
2022-08-20T21:38:58.848Z,16.56
2022-08-20T21:41:45.297Z,16.47
2022-08-20T21:44:33.355Z,16.62
2022-08-20T21:47:20.150Z,16.44
2022-08-20T21:50:07.910Z,16.44
2022-08-20T21:52:59.345Z,16.19
2022-08-20T21:55:59.917Z,16.42
2022-08-20T21:58:48.561Z,16.15
2022-08-20T22:01:38.240Z,16.09
2022-08-20T22:04:24.449Z,16.05
2022-08-20T22:07:12.044Z,16.09
2022-08-20T22:09:58.298Z,15.87
2022-08-20T22:12:45.353Z,15.85
2022-08-20T22:15:32.045Z,15.97
2022-08-20T22:18:18.661Z,15.87
2022-08-20T22:21:08.154Z,15.89
2022-08-20T22:23:58.498Z,16.00
2022-08-20T22:26:44.981Z,15.77
2022-08-20T22:29:31.752Z,15.78
2022-08-20T22:32:19.063Z,15.70
2022-08-20T22:35:08.614Z,15.63
2022-08-20T22:37:54.891Z,15.63
2022-08-20T22:40:42.391Z,15.71
2022-08-20T22:43:28.686Z,15.29
2022-08-20T22:46:16.028Z,15.60
2022-08-20T22:49:04.367Z,15.68
2022-08-20T22:51:50.814Z,15.50
2022-08-20T22:54:39.637Z,15.22
2022-08-20T22:57:31.320Z,15.29
2022-08-20T23:00:20.837Z,15.46
2022-08-20T23:03:07.667Z,15.30
2022-08-20T23:05:54.185Z,15.44
2022-08-20T23:08:42.258Z,15.36
2022-08-20T23:11:28.607Z,15.35
2022-08-20T23:14:15.023Z,15.06
2022-08-20T23:17:13.106Z,15.08
2022-08-20T23:19:59.937Z,15.20
2022-08-20T23:22:46.173Z,15.00
2022-08-20T23:25:33.270Z,14.87
2022-08-20T23:28:22.175Z,14.95
2022-08-20T23:31:08.320Z,14.82
2022-08-20T23:33:54.694Z,14.92
2022-08-20T23:36:41.781Z,14.85
2022-08-20T23:39:28.965Z,14.65
2022-08-20T23:42:16.158Z,14.69
2022-08-20T23:45:04.037Z,14.87
2022-08-20T23:47:51.093Z,14.92
2022-08-20T23:50:37.989Z,14.86
2022-08-20T23:53:24.773Z,14.54
2022-08-20T23:56:11.421Z,14.79
2022-08-20T23:58:58.199Z,14.70
